Time;durP1;ratioP1;P1;durP2;ratioP2;P2;SDS_P1;SDS_P2;PMS_P1;PMS_P2;Temp;Humidity;BMP_temperature;BMP_pressure;BME280_temperature;BME280_humidity;BME280_pressure;Samples;Min_cycle;Max_cycle;Signal;HPM_P1;HPM_P2
2023/12/08 00:01:41;;;;;;;;;;;1.80;99.90;;;;;;5084216;28;19938;-31
2023/12/08 00:04:08;;;;;;;;;;;1.80;99.90;;;;;;5100909;28;19936;-30
2023/12/08 00:06:35;;;;;;;;;;;1.80;99.90;;;;;;5103541;28;20449;-30
2023/12/08 00:09:01;;;;;;;;;;;1.90;99.90;;;;;;5098087;28;20046;-30
2023/12/08 00:11:29;;;;;;;;;;;1.80;99.90;;;;;;5078320;28;19944;-30
2023/12/08 00:13:57;;;;;;;;;;;1.80;99.90;;;;;;5082263;28;19987;-30
2023/12/08 00:16:23;;;;;;;;;;;1.80;99.90;;;;;;5075674;28;19925;-30
2023/12/08 00:18:50;;;;;;;;;;;1.80;99.90;;;;;;5094864;28;19981;-30
2023/12/08 00:21:17;;;;;;;;;;;1.80;99.90;;;;;;5096016;28;20018;-30
2023/12/08 00:23:44;;;;;;;;;;;1.80;99.90;;;;;;5107446;28;20344;-30
2023/12/08 00:26:12;;;;;;;;;;;1.80;99.90;;;;;;5096260;28;19942;-30
2023/12/08 00:28:40;;;;;;;;;;;1.80;99.90;;;;;;5096053;28;20009;-30
2023/12/08 00:31:06;;;;;;;;;;;1.80;99.90;;;;;;5097217;28;19987;-30
2023/12/08 00:33:33;;;;;;;;;;;1.80;99.90;;;;;;5095959;28;20318;-30
2023/12/08 00:35:59;;;;;;;;;;;1.80;99.90;;;;;;5094585;28;19942;-30
2023/12/08 00:38:26;;;;;;;;;;;1.80;99.90;;;;;;5113721;28;20313;-30
2023/12/08 00:40:54;;;;;;;;;;;1.80;99.90;;;;;;5113393;28;19986;-30
2023/12/08 00:43:21;;;;;;;;;;;1.80;99.90;;;;;;5109838;28;19938;-30
2023/12/08 00:45:49;;;;;;;;;;;1.80;99.90;;;;;;5094881;28;19983;-29
2023/12/08 00:48:16;;;;;;;;;;;1.80;99.90;;;;;;5095210;28;19981;-30
2023/12/08 00:50:42;;;;;;;;;;;1.80;99.90;;;;;;5093637;28;19980;-31
2023/12/08 00:53:09;;;;;;;;;;;1.80;99.90;;;;;;5095160;28;19975;-30
2023/12/08 00:55:35;;;;;;;;;;;1.80;99.90;;;;;;5094908;28;20392;-30
2023/12/08 00:58:02;;;;;;;;;;;1.70;99.90;;;;;;5095552;28;20002;-30
2023/12/08 01:00:29;;;;;;;;;;;1.80;99.90;;;;;;5112212;28;19993;-29
2023/12/08 01:02:57;;;;;;;;;;;1.70;99.90;;;;;;5103002;28;19992;-30
2023/12/08 01:05:23;;;;;;;;;;;1.70;99.90;;;;;;5093915;28;19993;-29
2023/12/08 01:07:50;;;;;;;;;;;1.70;99.90;;;;;;5093858;28;20433;-30
2023/12/08 01:10:17;;;;;;;;;;;1.80;99.90;;;;;;5093543;28;20365;-30
2023/12/08 01:12:43;;;;;;;;;;;1.70;99.90;;;;;;5112845;28;20428;-30
2023/12/08 01:15:10;;;;;;;;;;;1.70;99.90;;;;;;5111126;28;19977;-30
2023/12/08 01:17:37;;;;;;;;;;;1.70;99.90;;;;;;5112283;28;19968;-30
2023/12/08 01:20:07;;;;;;;;;;;1.70;99.90;;;;;;5101440;28;19938;-29
2023/12/08 01:22:34;;;;;;;;;;;1.70;99.90;;;;;;5114367;27;20271;-29
2023/12/08 01:25:00;;;;;;;;;;;1.70;99.90;;;;;;5112048;28;19997;-30
2023/12/08 01:27:27;;;;;;;;;;;1.70;99.90;;;;;;5108090;28;19997;-30
2023/12/08 01:29:53;;;;;;;;;;;1.70;99.90;;;;;;5096195;28;19957;-31
2023/12/08 01:32:20;;;;;;;;;;;1.70;99.90;;;;;;5094628;28;20000;-29
2023/12/08 01:34:47;;;;;;;;;;;1.70;99.90;;;;;;5113094;28;19928;-30
2023/12/08 01:37:15;;;;;;;;;;;1.70;99.90;;;;;;5110833;28;20376;-29
2023/12/08 01:39:42;;;;;;;;;;;1.70;99.90;;;;;;5112985;28;19924;-31
2023/12/08 01:42:08;;;;;;;;;;;1.60;99.90;;;;;;5110946;28;19985;-30
2023/12/08 01:44:35;;;;;;;;;;;1.70;99.90;;;;;;5112735;28;19946;-31
2023/12/08 01:47:02;;;;;;;;;;;1.70;99.90;;;;;;5110991;28;19946;-30
2023/12/08 01:49:28;;;;;;;;;;;1.60;99.90;;;;;;5110867;28;19983;-30
2023/12/08 01:51:55;;;;;;;;;;;1.70;99.90;;;;;;5111684;28;19964;-30
2023/12/08 01:54:23;;;;;;;;;;;1.70;99.90;;;;;;5111550;28;19989;-30
2023/12/08 01:56:50;;;;;;;;;;;1.60;99.90;;;;;;5101351;28;20012;-30
2023/12/08 01:59:16;;;;;;;;;;;1.70;99.90;;;;;;5101460;28;20377;-30
2023/12/08 02:01:43;;;;;;;;;;;1.60;99.90;;;;;;5109915;28;19989;-30
2023/12/08 02:04:10;;;;;;;;;;;1.60;99.90;;;;;;5110371;28;19945;-30
2023/12/08 02:06:36;;;;;;;;;;;1.60;99.90;;;;;;5110441;28;19944;-29
2023/12/08 02:09:03;;;;;;;;;;;1.60;99.90;;;;;;5111476;28;19924;-30
2023/12/08 02:11:31;;;;;;;;;;;1.60;99.90;;;;;;5112623;28;19985;-29
2023/12/08 02:13:57;;;;;;;;;;;1.60;99.90;;;;;;5130526;27;20021;-29
2023/12/08 02:16:24;;;;;;;;;;;1.60;99.90;;;;;;5131230;27;19958;-30
2023/12/08 02:18:51;;;;;;;;;;;1.60;99.90;;;;;;5114653;27;20007;-29
2023/12/08 02:21:17;;;;;;;;;;;1.60;99.90;;;;;;5131803;27;19934;-29
2023/12/08 02:23:46;;;;;;;;;;;1.60;99.90;;;;;;5114268;27;19991;-29
2023/12/08 02:26:13;;;;;;;;;;;1.60;99.90;;;;;;5124899;27;19941;-30
2023/12/08 02:28:40;;;;;;;;;;;1.60;99.90;;;;;;5112196;28;19945;-30
2023/12/08 02:31:06;;;;;;;;;;;1.60;99.90;;;;;;5119111;28;20355;-29
2023/12/08 02:33:33;;;;;;;;;;;1.60;99.90;;;;;;5109535;28;19987;-30
2023/12/08 02:36:00;;;;;;;;;;;1.60;99.90;;;;;;5106877;28;19943;-30
2023/12/08 02:38:26;;;;;;;;;;;1.50;99.90;;;;;;5111887;28;20699;-30
2023/12/08 02:40:54;;;;;;;;;;;1.60;99.90;;;;;;5112854;28;19940;-30
2023/12/08 02:43:21;;;;;;;;;;;1.50;99.90;;;;;;5115155;28;19943;-29
2023/12/08 02:45:48;;;;;;;;;;;1.60;99.90;;;;;;5113294;28;20057;-30
2023/12/08 02:48:14;;;;;;;;;;;1.60;99.90;;;;;;5113556;28;19923;-29
2023/12/08 02:50:40;;;;;;;;;;;1.60;99.90;;;;;;5131814;28;20001;-30
2023/12/08 02:53:07;;;;;;;;;;;1.60;99.90;;;;;;5113874;28;20289;-30
2023/12/08 02:55:33;;;;;;;;;;;1.60;99.90;;;;;;5113403;28;20156;-30
2023/12/08 02:58:01;;;;;;;;;;;1.60;99.90;;;;;;5124428;28;19998;-30
2023/12/08 03:00:28;;;;;;;;;;;1.50;99.90;;;;;;5111579;28;19977;-30
2023/12/08 03:02:54;;;;;;;;;;;1.60;99.90;;;;;;5112803;28;19994;-30
2023/12/08 03:05:21;;;;;;;;;;;1.60;99.90;;;;;;5114024;28;19935;-29
2023/12/08 03:07:48;;;;;;;;;;;1.60;99.90;;;;;;5113655;28;19939;-29
2023/12/08 03:10:14;;;;;;;;;;;1.60;99.90;;;;;;5118257;28;19963;-30
2023/12/08 03:12:41;;;;;;;;;;;1.50;99.90;;;;;;5113665;28;19962;-30
2023/12/08 03:15:09;;;;;;;;;;;1.50;99.90;;;;;;5113754;28;20003;-30
2023/12/08 03:17:36;;;;;;;;;;;1.60;99.90;;;;;;5101307;28;19936;-29
2023/12/08 03:20:03;;;;;;;;;;;1.50;99.90;;;;;;5096001;28;19923;-29
2023/12/08 03:22:33;;;;;;;;;;;1.60;99.90;;;;;;5114153;28;19989;-29
2023/12/08 03:24:59;;;;;;;;;;;1.60;99.90;;;;;;5114548;28;20438;-31
2023/12/08 03:27:26;;;;;;;;;;;1.60;99.90;;;;;;5131675;27;20429;-31
2023/12/08 03:29:53;;;;;;;;;;;1.50;99.90;;;;;;5135582;27;20001;-30
2023/12/08 03:32:21;;;;;;;;;;;1.50;99.90;;;;;;5115943;27;20012;-30
2023/12/08 03:34:47;;;;;;;;;;;1.40;99.90;;;;;;5111438;27;19988;-31
2023/12/08 03:37:14;;;;;;;;;;;1.40;99.90;;;;;;5116376;27;19940;-30
2023/12/08 03:39:41;;;;;;;;;;;1.40;99.90;;;;;;5135684;27;19934;-30
2023/12/08 03:42:07;;;;;;;;;;;1.40;99.90;;;;;;5115886;27;20091;-29
2023/12/08 03:44:34;;;;;;;;;;;1.40;99.90;;;;;;5105238;27;20386;-30
2023/12/08 03:47:00;;;;;;;;;;;1.30;99.90;;;;;;5116726;27;19942;-30
2023/12/08 03:49:28;;;;;;;;;;;1.40;99.90;;;;;;5115971;27;19961;-31
2023/12/08 03:51:55;;;;;;;;;;;1.30;99.90;;;;;;5134827;27;20305;-31
2023/12/08 03:54:22;;;;;;;;;;;1.30;99.90;;;;;;5113800;27;19923;-35
2023/12/08 03:56:48;;;;;;;;;;;1.30;99.90;;;;;;5129999;27;20000;-31
2023/12/08 03:59:15;;;;;;;;;;;1.30;99.90;;;;;;5106331;27;19980;-30
2023/12/08 04:01:42;;;;;;;;;;;1.30;99.90;;;;;;5104588;28;19959;-30
2023/12/08 04:04:10;;;;;;;;;;;1.20;99.90;;;;;;5131260;27;19938;-30
2023/12/08 04:06:38;;;;;;;;;;;1.20;99.90;;;;;;5116126;27;19938;-30
2023/12/08 04:09:04;;;;;;;;;;;1.20;99.90;;;;;;5116554;27;20002;-31
2023/12/08 04:11:31;;;;;;;;;;;1.30;99.90;;;;;;5134962;27;20442;-30
2023/12/08 04:13:58;;;;;;;;;;;1.20;99.90;;;;;;5116215;27;20476;-30
2023/12/08 04:16:24;;;;;;;;;;;1.20;99.90;;;;;;5115365;27;20446;-30
2023/12/08 04:18:51;;;;;;;;;;;1.20;99.90;;;;;;5135254;27;19985;-31
2023/12/08 04:21:18;;;;;;;;;;;1.10;99.90;;;;;;5112097;28;19936;-30
2023/12/08 04:23:49;;;;;;;;;;;1.10;99.90;;;;;;5114967;27;19939;-32
2023/12/08 04:26:16;;;;;;;;;;;1.10;99.90;;;;;;5116005;27;19940;-30
2023/12/08 04:28:43;;;;;;;;;;;1.10;99.90;;;;;;5134080;27;20022;-32
2023/12/08 04:31:10;;;;;;;;;;;1.10;99.90;;;;;;5114490;27;20430;-31
2023/12/08 04:33:36;;;;;;;;;;;1.10;99.90;;;;;;5106509;27;19986;-30
2023/12/08 04:36:03;;;;;;;;;;;1.10;99.90;;;;;;5134854;27;19941;-29
2023/12/08 04:38:30;;;;;;;;;;;1.00;99.90;;;;;;5108101;28;19962;-30
2023/12/08 04:40:58;;;;;;;;;;;1.00;99.90;;;;;;5129834;27;20366;-30
2023/12/08 04:43:24;;;;;;;;;;;1.10;99.90;;;;;;5113047;27;19942;-29
2023/12/08 04:45:51;;;;;;;;;;;1.00;99.90;;;;;;5117863;27;19950;-29
2023/12/08 04:48:18;;;;;;;;;;;1.10;99.90;;;;;;5116236;27;19927;-29
2023/12/08 04:50:44;;;;;;;;;;;1.10;99.90;;;;;;5110812;27;19951;-30
2023/12/08 04:53:11;;;;;;;;;;;1.00;99.90;;;;;;5112972;27;19947;-30
2023/12/08 04:55:38;;;;;;;;;;;1.00;99.90;;;;;;5109219;27;19936;-31
2023/12/08 04:58:06;;;;;;;;;;;1.00;99.90;;;;;;5110621;27;19996;-29
2023/12/08 05:00:32;;;;;;;;;;;1.00;99.90;;;;;;5131834;27;19981;-29
2023/12/08 05:02:59;;;;;;;;;;;1.00;99.90;;;;;;5113193;27;19998;-29
2023/12/08 05:05:26;;;;;;;;;;;1.00;99.90;;;;;;5113404;27;20351;-30
2023/12/08 05:07:53;;;;;;;;;;;1.00;99.90;;;;;;5132278;27;20415;-31
2023/12/08 05:10:19;;;;;;;;;;;1.10;99.90;;;;;;5103640;27;20004;-30
2023/12/08 05:12:47;;;;;;;;;;;1.00;99.90;;;;;;5099028;28;20009;-31
2023/12/08 05:15:15;;;;;;;;;;;1.00;99.90;;;;;;5109852;27;19938;-30
2023/12/08 05:17:42;;;;;;;;;;;1.00;99.90;;;;;;5128939;27;19942;-29
2023/12/08 05:20:11;;;;;;;;;;;1.00;99.90;;;;;;5129123;27;19992;-30
2023/12/08 05:22:38;;;;;;;;;;;1.00;99.90;;;;;;5125749;27;19994;-30
2023/12/08 05:25:05;;;;;;;;;;;1.10;99.90;;;;;;5108663;27;19934;-30
2023/12/08 05:27:31;;;;;;;;;;;1.10;99.90;;;;;;5132681;27;19948;-31
2023/12/08 05:29:58;;;;;;;;;;;1.00;99.90;;;;;;5134059;27;19923;-31
2023/12/08 05:32:26;;;;;;;;;;;1.10;99.90;;;;;;5114050;27;19981;-30
2023/12/08 05:34:53;;;;;;;;;;;1.10;99.90;;;;;;5115322;27;20030;-30
2023/12/08 05:37:19;;;;;;;;;;;1.10;99.90;;;;;;5118392;27;19991;-31
2023/12/08 05:39:46;;;;;;;;;;;1.00;99.90;;;;;;5122679;27;19953;-30
2023/12/08 05:42:13;;;;;;;;;;;1.10;99.90;;;;;;5102849;27;20318;-31
2023/12/08 05:44:39;;;;;;;;;;;1.10;99.90;;;;;;5113625;27;19923;-30
2023/12/08 05:47:06;;;;;;;;;;;1.10;99.90;;;;;;5108279;27;19947;-31
2023/12/08 05:49:34;;;;;;;;;;;1.10;99.90;;;;;;5115981;27;19997;-30
2023/12/08 05:52:00;;;;;;;;;;;1.00;99.90;;;;;;5133341;27;20313;-31
2023/12/08 05:54:27;;;;;;;;;;;1.10;99.90;;;;;;5106741;27;20417;-30
2023/12/08 05:56:54;;;;;;;;;;;1.10;99.90;;;;;;5098047;28;19961;-31
2023/12/08 05:59:20;;;;;;;;;;;1.00;99.90;;;;;;5132466;27;20007;-31
2023/12/08 06:01:47;;;;;;;;;;;1.10;99.90;;;;;;5114297;27;20351;-30
2023/12/08 06:04:14;;;;;;;;;;;1.10;99.90;;;;;;5109457;27;20501;-30
2023/12/08 06:06:42;;;;;;;;;;;1.10;99.90;;;;;;5110006;27;19939;-30
2023/12/08 06:09:09;;;;;;;;;;;1.00;99.90;;;;;;5127823;27;20050;-31
2023/12/08 06:11:37;;;;;;;;;;;1.10;99.90;;;;;;5098328;27;20438;-30
2023/12/08 06:14:05;;;;;;;;;;;1.10;99.90;;;;;;5096570;27;19978;-30
2023/12/08 06:16:32;;;;;;;;;;;1.10;99.90;;;;;;5109039;27;19939;-32
2023/12/08 06:18:58;;;;;;;;;;;1.00;99.90;;;;;;5108925;28;19940;-30
2023/12/08 06:21:25;;;;;;;;;;;1.10;99.90;;;;;;5127681;27;19979;-30
2023/12/08 06:23:53;;;;;;;;;;;1.10;99.90;;;;;;5106112;27;19945;-31
2023/12/08 06:26:20;;;;;;;;;;;1.00;99.90;;;;;;5132329;27;19938;-30
2023/12/08 06:28:46;;;;;;;;;;;1.00;99.90;;;;;;5114754;28;19942;-31
2023/12/08 06:31:13;;;;;;;;;;;1.00;99.90;;;;;;5127616;27;20012;-31
2023/12/08 06:33:40;;;;;;;;;;;1.10;99.90;;;;;;5113780;28;20366;-31
2023/12/08 06:36:07;;;;;;;;;;;1.00;99.90;;;;;;5121591;28;19945;-31
2023/12/08 06:38:34;;;;;;;;;;;1.00;99.90;;;;;;5110876;28;20432;-31
2023/12/08 06:41:02;;;;;;;;;;;1.00;99.90;;;;;;5113382;28;19944;-31
2023/12/08 06:43:28;;;;;;;;;;;1.10;99.90;;;;;;5111786;28;19986;-31
2023/12/08 06:45:55;;;;;;;;;;;1.10;99.90;;;;;;5114524;28;19927;-31
2023/12/08 06:48:23;;;;;;;;;;;1.20;99.90;;;;;;5111187;28;19944;-31
2023/12/08 06:50:51;;;;;;;;;;;1.00;99.90;;;;;;5125658;28;19983;-30
2023/12/08 06:53:17;;;;;;;;;;;1.10;99.90;;;;;;5130018;28;20000;-31
2023/12/08 06:55:44;;;;;;;;;;;1.00;99.90;;;;;;5111709;28;19983;-31
2023/12/08 06:58:13;;;;;;;;;;;1.00;99.90;;;;;;5109875;28;20309;-29
2023/12/08 07:00:39;;;;;;;;;;;1.00;99.90;;;;;;5100559;28;19946;-30
2023/12/08 07:03:06;;;;;;;;;;;1.00;99.90;;;;;;5107722;27;19944;-31
2023/12/08 07:05:32;;;;;;;;;;;1.00;99.90;;;;;;5101504;27;19986;-30
2023/12/08 07:07:59;;;;;;;;;;;1.00;99.90;;;;;;5131232;27;19943;-31
2023/12/08 07:10:26;;;;;;;;;;;1.00;99.90;;;;;;5134748;27;20419;-31
2023/12/08 07:12:53;;;;;;;;;;;1.00;99.90;;;;;;5134104;27;20338;-30
2023/12/08 07:15:21;;;;;;;;;;;1.00;99.90;;;;;;5114722;27;19954;-30
2023/12/08 07:17:47;;;;;;;;;;;1.00;99.90;;;;;;5116448;27;20062;-29
2023/12/08 07:20:17;;;;;;;;;;;1.00;99.90;;;;;;5115896;27;19998;-31
2023/12/08 07:22:43;;;;;;;;;;;1.00;99.90;;;;;;5114482;27;19982;-29
2023/12/08 07:25:10;;;;;;;;;;;1.00;99.90;;;;;;5130637;27;19996;-30
2023/12/08 07:27:37;;;;;;;;;;;1.00;99.90;;;;;;5129070;27;19924;-30
2023/12/08 07:30:04;;;;;;;;;;;1.10;99.90;;;;;;5109433;28;19976;-30
2023/12/08 07:32:32;;;;;;;;;;;1.00;99.90;;;;;;5124197;27;19959;-30
2023/12/08 07:34:58;;;;;;;;;;;1.10;99.90;;;;;;5114011;27;20337;-30
2023/12/08 07:37:28;;;;;;;;;;;1.10;99.90;;;;;;5132584;27;19933;-30
2023/12/08 07:39:54;;;;;;;;;;;1.10;99.90;;;;;;5114452;28;20050;-31
2023/12/08 07:42:21;;;;;;;;;;;1.10;99.90;;;;;;5111866;27;20359;-30
2023/12/08 07:44:48;;;;;;;;;;;1.10;99.90;;;;;;5124202;27;20394;-30
2023/12/08 07:47:15;;;;;;;;;;;1.10;99.90;;;;;;5130104;27;20339;-31
2023/12/08 07:49:43;;;;;;;;;;;1.20;99.90;;;;;;5114940;27;20360;-30
2023/12/08 07:52:10;;;;;;;;;;;1.10;99.90;;;;;;5107175;28;20454;-30
2023/12/08 07:54:37;;;;;;;;;;;1.10;99.90;;;;;;5130952;27;20385;-29
2023/12/08 07:57:04;;;;;;;;;;;1.10;99.90;;;;;;5109154;27;19949;-30
2023/12/08 07:59:30;;;;;;;;;;;1.10;99.90;;;;;;5101114;28;19938;-29
2023/12/08 08:01:57;;;;;;;;;;;1.10;99.90;;;;;;5113969;28;20010;-30
2023/12/08 08:04:24;;;;;;;;;;;1.10;99.90;;;;;;5128887;27;20011;-31
2023/12/08 08:06:52;;;;;;;;;;;1.10;99.90;;;;;;5115058;27;19923;-30
2023/12/08 08:09:19;;;;;;;;;;;1.20;99.90;;;;;;5113485;27;20033;-30
2023/12/08 08:11:45;;;;;;;;;;;1.10;99.90;;;;;;5132695;27;19951;-30
2023/12/08 08:14:12;;;;;;;;;;;1.20;99.90;;;;;;5131458;27;20305;-31
2023/12/08 08:16:39;;;;;;;;;;;1.20;99.90;;;;;;5108548;27;20008;-31
2023/12/08 08:19:05;;;;;;;;;;;1.20;99.90;;;;;;5113902;27;19965;-30
2023/12/08 08:21:32;;;;;;;;;;;1.20;99.90;;;;;;5114105;27;19988;-32
2023/12/08 08:24:00;;;;;;;;;;;1.20;99.90;;;;;;5128611;27;20374;-31
2023/12/08 08:26:27;;;;;;;;;;;1.20;99.90;;;;;;5132215;27;19989;-29
2023/12/08 08:28:53;;;;;;;;;;;1.20;99.90;;;;;;5114088;27;19942;-30
2023/12/08 08:31:20;;;;;;;;;;;1.20;99.90;;;;;;5111352;27;19927;-31
2023/12/08 08:33:47;;;;;;;;;;;1.20;99.90;;;;;;5133328;27;19942;-31
2023/12/08 08:36:13;;;;;;;;;;;1.30;99.90;;;;;;5115546;27;19938;-31
2023/12/08 08:38:40;;;;;;;;;;;1.30;99.90;;;;;;5113847;27;19934;-31
2023/12/08 08:41:08;;;;;;;;;;;1.20;99.90;;;;;;5115403;27;19940;-31
2023/12/08 08:43:35;;;;;;;;;;;1.30;99.90;;;;;;5128400;27;20000;-31
2023/12/08 08:46:01;;;;;;;;;;;1.30;99.90;;;;;;5112320;27;19941;-31
2023/12/08 08:48:28;;;;;;;;;;;1.30;99.90;;;;;;5124934;27;19956;-31
2023/12/08 08:50:54;;;;;;;;;;;1.30;99.90;;;;;;5104027;27;20018;-31
2023/12/08 08:53:21;;;;;;;;;;;1.30;99.90;;;;;;5122608;27;20333;-31
2023/12/08 08:55:48;;;;;;;;;;;1.30;99.90;;;;;;5133653;27;19941;-31
2023/12/08 08:58:16;;;;;;;;;;;1.30;99.90;;;;;;5114326;27;20355;-30
2023/12/08 09:00:43;;;;;;;;;;;1.30;99.90;;;;;;5114427;27;19943;-30
2023/12/08 09:03:09;;;;;;;;;;;1.30;99.90;;;;;;5113015;27;20389;-31
2023/12/08 09:05:40;;;;;;;;;;;1.30;99.90;;;;;;5112190;27;19934;-30
2023/12/08 09:08:07;;;;;;;;;;;1.30;99.90;;;;;;5131801;27;19944;-30
2023/12/08 09:10:34;;;;;;;;;;;1.30;99.90;;;;;;5126529;27;19941;-31
2023/12/08 09:13:00;;;;;;;;;;;1.30;99.90;;;;;;5109191;27;19957;-32
2023/12/08 09:15:28;;;;;;;;;;;1.30;99.90;;;;;;5128043;27;19940;-30
2023/12/08 09:17:55;;;;;;;;;;;1.40;99.90;;;;;;5111109;27;20020;-30
2023/12/08 09:20:22;;;;;;;;;;;1.30;99.90;;;;;;5100188;27;20345;-30
2023/12/08 09:22:48;;;;;;;;;;;1.40;99.90;;;;;;5109530;27;20389;-30
2023/12/08 09:25:15;;;;;;;;;;;1.40;99.90;;;;;;5115901;27;20469;-29
2023/12/08 09:27:42;;;;;;;;;;;1.40;99.90;;;;;;5114209;27;19963;-30
2023/12/08 09:30:09;;;;;;;;;;;1.30;99.90;;;;;;5112363;27;19944;-30
2023/12/08 09:32:37;;;;;;;;;;;1.40;99.90;;;;;;5113716;27;19965;-30
2023/12/08 09:35:04;;;;;;;;;;;1.40;99.90;;;;;;5111562;28;19944;-30
2023/12/08 09:37:31;;;;;;;;;;;1.40;99.90;;;;;;5116767;27;19959;-30
2023/12/08 09:39:58;;;;;;;;;;;1.40;99.90;;;;;;5131955;27;19943;-31
2023/12/08 09:42:28;;;;;;;;;;;1.40;99.90;;;;;;5113890;27;19957;-31
2023/12/08 09:44:55;;;;;;;;;;;1.40;99.90;;;;;;5107590;28;19938;-31
2023/12/08 09:47:21;;;;;;;;;;;1.40;99.90;;;;;;5129276;27;19945;-31
2023/12/08 09:49:49;;;;;;;;;;;1.40;99.90;;;;;;5131938;27;19944;-31
2023/12/08 09:52:16;;;;;;;;;;;1.40;99.90;;;;;;5131033;27;19996;-30
2023/12/08 09:54:43;;;;;;;;;;;1.40;99.90;;;;;;5113176;27;19964;-30
2023/12/08 09:57:10;;;;;;;;;;;1.50;99.90;;;;;;5099041;28;20011;-30
2023/12/08 09:59:38;;;;;;;;;;;1.40;99.90;;;;;;5119474;27;19973;-31
2023/12/08 10:02:07;;;;;;;;;;;1.50;99.90;;;;;;5113195;27;20000;-30
2023/12/08 10:04:34;;;;;;;;;;;1.50;99.90;;;;;;5112910;27;20051;-30
2023/12/08 10:07:03;;;;;;;;;;;1.50;99.90;;;;;;5127472;27;19944;-30
2023/12/08 10:09:30;;;;;;;;;;;1.50;99.90;;;;;;5110090;27;19996;-31
2023/12/08 10:11:56;;;;;;;;;;;1.50;99.90;;;;;;5108903;27;20414;-31
2023/12/08 10:14:23;;;;;;;;;;;1.50;99.90;;;;;;5112082;27;19946;-30
2023/12/08 10:16:50;;;;;;;;;;;1.50;99.90;;;;;;5130951;27;20313;-31
2023/12/08 10:19:19;;;;;;;;;;;1.50;99.90;;;;;;5113408;27;19943;-30
2023/12/08 10:21:45;;;;;;;;;;;1.50;99.90;;;;;;5113491;27;19924;-30
2023/12/08 10:24:13;;;;;;;;;;;1.50;99.90;;;;;;5130803;27;19940;-30
2023/12/08 10:26:40;;;;;;;;;;;1.50;99.90;;;;;;5106390;28;19993;-30
2023/12/08 10:29:08;;;;;;;;;;;1.50;99.90;;;;;;5104742;28;19985;-30
2023/12/08 10:31:34;;;;;;;;;;;1.50;99.90;;;;;;5108594;28;20062;-29
2023/12/08 10:34:01;;;;;;;;;;;1.50;99.90;;;;;;5127212;27;19940;-30
2023/12/08 10:36:28;;;;;;;;;;;1.50;99.90;;;;;;5131215;28;19933;-30
2023/12/08 10:38:54;;;;;;;;;;;1.60;99.90;;;;;;5112713;28;20013;-30
2023/12/08 10:41:25;;;;;;;;;;;1.60;99.90;;;;;;5130964;28;19924;-30
2023/12/08 10:43:52;;;;;;;;;;;1.60;99.90;;;;;;5130216;28;19938;-31
2023/12/08 10:46:19;;;;;;;;;;;1.60;99.90;;;;;;5131278;28;20037;-30
2023/12/08 10:48:45;;;;;;;;;;;1.60;99.90;;;;;;5129435;28;19997;-31
2023/12/08 10:51:13;;;;;;;;;;;1.60;99.90;;;;;;5112833;28;19928;-30
2023/12/08 10:53:40;;;;;;;;;;;1.60;99.90;;;;;;5096746;28;19996;-31
2023/12/08 10:56:07;;;;;;;;;;;1.60;99.90;;;;;;5118162;28;19942;-32
2023/12/08 10:58:36;;;;;;;;;;;1.60;99.90;;;;;;5108591;28;19962;-31
2023/12/08 11:01:03;;;;;;;;;;;1.60;99.90;;;;;;5127930;28;19945;-30
2023/12/08 11:03:31;;;;;;;;;;;1.60;99.90;;;;;;5113028;28;19995;-30
2023/12/08 11:05:59;;;;;;;;;;;1.70;99.90;;;;;;5131027;28;20460;-30
2023/12/08 11:08:26;;;;;;;;;;;1.70;99.90;;;;;;5129374;28;19945;-29
2023/12/08 11:10:53;;;;;;;;;;;1.70;99.90;;;;;;5129656;28;19943;-29
2023/12/08 11:13:20;;;;;;;;;;;1.70;99.90;;;;;;5112114;28;20007;-30
2023/12/08 11:15:51;;;;;;;;;;;1.70;99.90;;;;;;5130668;28;19957;-30
2023/12/08 11:18:18;;;;;;;;;;;1.70;99.90;;;;;;5121693;28;19937;-30
2023/12/08 11:20:45;;;;;;;;;;;1.70;99.90;;;;;;5112305;28;20429;-30
2023/12/08 11:23:12;;;;;;;;;;;1.80;99.90;;;;;;5128534;28;20003;-30
2023/12/08 11:25:39;;;;;;;;;;;1.80;99.90;;;;;;5110401;28;19981;-29
2023/12/08 11:28:07;;;;;;;;;;;1.80;99.90;;;;;;5105454;28;19969;-30
2023/12/08 11:30:36;;;;;;;;;;;1.80;99.90;;;;;;5111222;28;20013;-31
2023/12/08 11:33:06;;;;;;;;;;;1.80;99.90;;;;;;5130981;28;20329;-31
2023/12/08 11:35:32;;;;;;;;;;;1.80;99.90;;;;;;5107748;28;19930;-30
2023/12/08 11:38:00;;;;;;;;;;;1.80;99.90;;;;;;5094210;28;20011;-29
2023/12/08 11:40:26;;;;;;;;;;;1.80;99.90;;;;;;5121763;28;19940;-30
2023/12/08 11:42:53;;;;;;;;;;;1.80;99.90;;;;;;5131595;28;20034;-30
2023/12/08 11:45:20;;;;;;;;;;;1.90;99.90;;;;;;5112503;28;19943;-30
2023/12/08 11:47:47;;;;;;;;;;;1.90;99.90;;;;;;5114104;28;20002;-30
2023/12/08 11:50:15;;;;;;;;;;;1.80;99.90;;;;;;5133994;27;19944;-30
2023/12/08 11:52:42;;;;;;;;;;;1.80;99.90;;;;;;5117268;27;20003;-30
2023/12/08 11:55:09;;;;;;;;;;;1.90;99.90;;;;;;5117617;27;19940;-29
2023/12/08 11:57:36;;;;;;;;;;;1.90;99.90;;;;;;5117871;27;19947;-30
2023/12/08 12:00:04;;;;;;;;;;;1.90;99.90;;;;;;5117094;27;19942;-29
2023/12/08 12:02:31;;;;;;;;;;;1.90;99.90;;;;;;5135552;27;19942;-30
2023/12/08 12:04:57;;;;;;;;;;;1.90;99.90;;;;;;5115857;27;19939;-30
2023/12/08 12:07:25;;;;;;;;;;;1.90;99.90;;;;;;5116195;27;20675;-29
2023/12/08 12:09:52;;;;;;;;;;;1.90;99.90;;;;;;5116606;27;20023;-30
2023/12/08 12:12:21;;;;;;;;;;;1.90;99.90;;;;;;5117185;27;20024;-30
2023/12/08 12:14:48;;;;;;;;;;;2.00;99.90;;;;;;5135511;27;19940;-30
2023/12/08 12:17:15;;;;;;;;;;;2.00;99.90;;;;;;5115669;27;19958;-30
2023/12/08 12:19:41;;;;;;;;;;;2.00;99.90;;;;;;5116109;27;20331;-29
2023/12/08 12:22:08;;;;;;;;;;;2.00;99.90;;;;;;5117341;27;19993;-30
2023/12/08 12:24:36;;;;;;;;;;;2.10;99.90;;;;;;5124377;27;19983;-31
2023/12/08 12:27:03;;;;;;;;;;;2.00;99.90;;;;;;5130039;27;19943;-30
2023/12/08 12:29:29;;;;;;;;;;;2.00;99.90;;;;;;5113039;28;20001;-29
2023/12/08 12:31:56;;;;;;;;;;;2.10;99.90;;;;;;5127808;27;19947;-30
2023/12/08 12:34:23;;;;;;;;;;;2.10;99.90;;;;;;5135404;27;19940;-29
2023/12/08 12:36:49;;;;;;;;;;;2.00;99.90;;;;;;5116291;27;19944;-30
2023/12/08 12:39:16;;;;;;;;;;;2.10;99.90;;;;;;5114374;27;19966;-31
2023/12/08 12:41:44;;;;;;;;;;;2.10;99.90;;;;;;5099070;28;19985;-31
2023/12/08 12:44:11;;;;;;;;;;;2.10;99.90;;;;;;5098693;27;19965;-31
2023/12/08 12:46:41;;;;;;;;;;;2.10;99.90;;;;;;5116127;27;20316;-31
2023/12/08 12:49:07;;;;;;;;;;;2.20;99.90;;;;;;5116215;27;19940;-30
2023/12/08 12:51:34;;;;;;;;;;;2.10;99.90;;;;;;5131058;27;20021;-29
2023/12/08 12:54:01;;;;;;;;;;;2.10;99.90;;;;;;5115863;27;20422;-30
2023/12/08 12:56:28;;;;;;;;;;;2.20;99.90;;;;;;5116183;27;20028;-30
2023/12/08 12:59:06;;;;;;;;;;;2.20;99.90;;;;;;5134733;27;20038;-30
2023/12/08 13:01:32;;;;;;;;;;;2.20;99.90;;;;;;5102641;28;19989;-30
2023/12/08 13:03:59;;;;;;;;;;;2.20;99.90;;;;;;5129541;27;19944;-30
2023/12/08 13:06:26;;;;;;;;;;;2.20;99.90;;;;;;5116154;27;19985;-31
2023/12/08 13:08:53;;;;;;;;;;;2.20;99.90;;;;;;5107701;27;19943;-30
2023/12/08 13:11:19;;;;;;;;;;;2.20;99.90;;;;;;5114318;27;19988;-30
2023/12/08 13:13:46;;;;;;;;;;;2.20;99.90;;;;;;5118584;27;20020;-30
2023/12/08 13:16:14;;;;;;;;;;;2.30;99.90;;;;;;5131077;27;20401;-31
2023/12/08 13:18:44;;;;;;;;;;;2.30;99.90;;;;;;5112800;27;20009;-30
2023/12/08 13:21:11;;;;;;;;;;;2.30;99.90;;;;;;5114416;27;19938;-30
2023/12/08 13:23:37;;;;;;;;;;;2.30;99.90;;;;;;5113411;27;19936;-31
2023/12/08 13:26:04;;;;;;;;;;;2.40;99.90;;;;;;5109459;28;20376;-31
2023/12/08 13:28:31;;;;;;;;;;;2.40;99.90;;;;;;5112385;27;19968;-31
2023/12/08 13:30:58;;;;;;;;;;;2.40;99.90;;;;;;5132989;27;20379;-31
2023/12/08 13:33:26;;;;;;;;;;;2.40;99.90;;;;;;5112950;27;19950;-31
2023/12/08 13:35:52;;;;;;;;;;;2.40;99.90;;;;;;5114935;27;19974;-31
2023/12/08 13:38:19;;;;;;;;;;;2.50;99.90;;;;;;5115495;27;19966;-32
2023/12/08 13:40:46;;;;;;;;;;;2.60;99.90;;;;;;5114479;27;20381;-31
2023/12/08 13:43:12;;;;;;;;;;;2.50;99.90;;;;;;5131278;27;19957;-31
2023/12/08 13:45:39;;;;;;;;;;;2.50;99.90;;;;;;5128675;27;19953;-30
2023/12/08 13:48:06;;;;;;;;;;;2.50;99.90;;;;;;5113670;27;19979;-31
2023/12/08 13:50:34;;;;;;;;;;;2.50;99.90;;;;;;5101710;27;20053;-32
2023/12/08 13:53:00;;;;;;;;;;;2.50;99.90;;;;;;5123799;27;19954;-30
2023/12/08 13:55:27;;;;;;;;;;;2.50;99.90;;;;;;5114473;27;19943;-30
2023/12/08 13:57:54;;;;;;;;;;;2.60;99.90;;;;;;5133252;27;19951;-31
2023/12/08 14:00:20;;;;;;;;;;;2.60;99.90;;;;;;5132124;27;19938;-31
2023/12/08 14:02:47;;;;;;;;;;;2.60;99.90;;;;;;5115414;27;19928;-30
2023/12/08 14:05:14;;;;;;;;;;;2.60;99.90;;;;;;5115911;27;20350;-30
2023/12/08 14:07:42;;;;;;;;;;;2.60;99.90;;;;;;5132586;27;19997;-30
2023/12/08 14:10:09;;;;;;;;;;;2.60;99.90;;;;;;5132852;27;19934;-31
2023/12/08 14:12:36;;;;;;;;;;;2.70;99.90;;;;;;5114079;27;19968;-31
2023/12/08 14:15:04;;;;;;;;;;;2.60;99.90;;;;;;5132611;27;20040;-31
2023/12/08 14:17:30;;;;;;;;;;;2.70;99.90;;;;;;5114298;27;20389;-31
2023/12/08 14:19:57;;;;;;;;;;;2.70;99.90;;;;;;5114983;27;19944;-31
2023/12/08 14:22:24;;;;;;;;;;;2.70;99.90;;;;;;5132345;27;19988;-31
2023/12/08 14:24:53;;;;;;;;;;;2.70;99.90;;;;;;5129363;27;19992;-31
2023/12/08 14:27:21;;;;;;;;;;;2.70;99.90;;;;;;5131543;27;20368;-31
2023/12/08 14:29:48;;;;;;;;;;;2.80;99.90;;;;;;5127746;27;20315;-31